Time,TemperatureF,DewpointF,PressureIn,WindDirection,WindDirectionDegrees,WindSpeedMPH,WindSpeedGustMPH,Humidity,HourlyPrecipIn,Conditions,Clouds,dailyrainin,SoftwareType,DateUTC
2013-11-11 00:04:00,32.9,30.6,30.11,West,263,1.0,1.0,91,0.00,,,0.00,VWS V12.07,2013-11-11 06:04:00,
2013-11-11 00:09:00,32.9,30.3,30.11,West,277,2.0,5.0,90,0.00,,,0.00,VWS V12.07,2013-11-11 06:09:00,
2013-11-11 00:14:00,32.9,30.3,30.10,West,271,0.0,6.0,90,0.00,,,0.00,VWS V12.07,2013-11-11 06:14:00,
2013-11-11 00:24:00,32.9,30.0,30.11,WSW,253,0.0,7.0,89,0.00,,,0.00,VWS V12.07,2013-11-11 06:24:00,
2013-11-11 00:29:00,32.9,30.0,30.11,NW,310,0.0,7.0,89,0.00,,,0.00,VWS V12.07,2013-11-11 06:29:00,
2013-11-11 00:34:00,32.9,30.0,30.11,West,261,2.0,2.0,89,0.00,,,0.00,VWS V12.07,2013-11-11 06:34:00,
2013-11-11 00:39:00,32.9,29.7,30.10,SW,230,0.0,3.0,88,0.00,,,0.00,VWS V12.07,2013-11-11 06:39:00,
2013-11-11 00:44:00,32.9,30.0,30.10,West,263,3.0,3.0,89,0.00,,,0.00,VWS V12.07,2013-11-11 06:44:00,
2013-11-11 00:49:00,32.8,29.9,30.10,West,271,3.0,3.0,89,0.00,,,0.00,VWS V12.07,2013-11-11 06:49:00,
2013-11-11 00:54:00,32.8,29.9,30.10,West,265,1.0,3.0,89,0.00,,,0.00,VWS V12.07,2013-11-11 06:54:00,
2013-11-11 00:59:00,32.8,29.9,30.09,West,267,0.0,3.0,89,0.00,,,0.00,VWS V12.07,2013-11-11 06:59:00,
2013-11-11 01:09:00,32.7,29.8,30.09,WNW,302,0.0,1.0,89,0.00,,,0.00,VWS V12.07,2013-11-11 07:09:00,
2013-11-11 01:14:00,32.6,29.7,30.09,WNW,302,0.0,1.0,89,0.00,,,0.00,VWS V12.07,2013-11-11 07:14:00,
2013-11-11 01:19:00,32.5,29.6,30.09,WNW,302,0.0,1.0,89,0.00,,,0.00,VWS V12.07,2013-11-11 07:19:00,
2013-11-11 01:24:00,32.4,29.8,30.08,WNW,298,0.0,2.0,90,0.00,,,0.00,VWS V12.07,2013-11-11 07:24:00,
2013-11-11 01:29:00,32.3,29.7,30.08,WNW,298,0.0,2.0,90,0.00,,,0.00,VWS V12.07,2013-11-11 07:29:00,
2013-11-11 01:34:00,32.3,29.7,30.08,WNW,298,0.0,0.0,90,0.00,,,0.00,VWS V12.07,2013-11-11 07:34:00,
2013-11-11 01:39:00,32.3,29.7,30.09,WNW,298,0.0,1.0,90,0.00,,,0.00,VWS V12.07,2013-11-11 07:39:00,
2013-11-11 01:44:00,32.3,29.7,30.09,WNW,283,0.0,4.0,90,0.00,,,0.00,VWS V12.07,2013-11-11 07:44:00,
2013-11-11 01:49:00,32.3,29.7,30.09,WNW,287,2.0,4.0,90,0.00,,,0.00,VWS V12.07,2013-11-11 07:49:00,
2013-11-11 01:54:00,32.4,29.8,30.09,West,275,0.0,4.0,90,0.00,,,0.00,VWS V12.07,2013-11-11 07:54:00,
2013-11-11 02:04:00,32.4,29.8,30.09,West,275,0.0,0.0,90,0.00,,,0.00,VWS V12.07,2013-11-11 08:04:00,
2013-11-11 02:09:00,32.4,29.8,30.09,West,274,0.0,2.0,90,0.00,,,0.00,VWS V12.07,2013-11-11 08:09:00,
2013-11-11 02:14:00,32.5,29.9,30.09,North,355,0.0,2.0,90,0.00,,,0.00,VWS V12.07,2013-11-11 08:14:00,
2013-11-11 02:19:00,32.5,29.9,30.09,WNW,296,3.0,4.0,90,0.00,,,0.00,VWS V12.07,2013-11-11 08:19:00,
2013-11-11 02:29:00,32.6,29.7,30.09,NW,326,0.0,6.0,89,0.00,,,0.00,VWS V12.07,2013-11-11 08:29:00,
2013-11-11 02:34:00,32.6,29.5,30.09,West,280,1.0,1.0,88,0.00,,,0.00,VWS V12.07,2013-11-11 08:34:00,
2013-11-11 02:39:00,32.6,29.5,30.09,NW,318,0.0,5.0,88,0.00,,,0.00,VWS V12.07,2013-11-11 08:39:00,
2013-11-11 02:44:00,32.6,29.5,30.09,NNW,340,0.0,5.0,88,0.00,,,0.00,VWS V12.07,2013-11-11 08:44:00,
2013-11-11 02:49:00,32.6,29.5,30.09,West,267,0.0,8.0,88,0.00,,,0.00,VWS V12.07,2013-11-11 08:49:00,
2013-11-11 02:59:00,32.6,29.5,30.09,WNW,293,0.0,8.0,88,0.00,,,0.00,VWS V12.07,2013-11-11 08:59:00,
2013-11-11 03:09:00,32.5,29.4,30.09,WSW,242,0.0,4.0,88,0.00,,,0.00,VWS V12.07,2013-11-11 09:09:00,
2013-11-11 03:14:00,32.5,29.4,30.10,NE,50,0.0,4.0,88,0.00,,,0.00,VWS V12.07,2013-11-11 09:14:00,
2013-11-11 03:19:00,31.9,27.9,30.10,NE,38,3.0,11.0,85,0.00,,,0.00,VWS V12.07,2013-11-11 09:19:00,
2013-11-11 03:24:00,31.2,26.9,30.11,NW,316,2.0,11.0,84,0.00,,,0.00,VWS V12.07,2013-11-11 09:24:00,
2013-11-11 03:29:00,30.7,26.7,30.12,NE,49,10.0,11.0,85,0.00,,,0.00,VWS V12.07,2013-11-11 09:29:00,
2013-11-11 03:34:00,29.8,25.3,30.12,East,83,6.0,9.0,83,0.00,,,0.00,VWS V12.07,2013-11-11 09:34:00,
2013-11-11 03:44:00,28.9,24.1,30.13,ENE,72,5.0,13.0,82,0.00,,,0.00,VWS V12.07,2013-11-11 09:44:00,
2013-11-11 03:49:00,28.8,24.3,30.13,NE,34,0.0,13.0,83,0.00,,,0.00,VWS V12.07,2013-11-11 09:49:00,
2013-11-11 03:54:00,28.7,24.2,30.13,ENE,59,4.0,13.0,83,0.00,,,0.00,VWS V12.07,2013-11-11 09:54:00,
2013-11-11 03:59:00,28.5,24.3,30.14,NE,49,1.0,13.0,84,0.00,,,0.00,VWS V12.07,2013-11-11 09:59:00,
2013-11-11 04:04:00,28.1,23.3,30.14,NE,45,6.0,6.0,82,0.00,,,0.00,VWS V12.07,2013-11-11 10:04:00,
2013-11-11 04:09:00,27.7,22.9,30.15,NW,325,1.0,7.0,82,0.00,,,0.00,VWS V12.07,2013-11-11 10:09:00,
2013-11-11 04:14:00,27.2,22.4,30.15,ENE,66,5.0,11.0,82,0.00,,,0.00,VWS V12.07,2013-11-11 10:14:00,
2013-11-11 04:19:00,26.8,22.0,30.16,NE,50,8.0,11.0,82,0.00,,,0.00,VWS V12.07,2013-11-11 10:19:00,
2013-11-11 04:24:00,26.5,21.8,30.16,NE,46,4.0,11.0,82,0.00,,,0.00,VWS V12.07,2013-11-11 10:24:00,
2013-11-11 04:29:00,26.3,21.6,30.16,NE,40,4.0,11.0,82,0.00,,,0.00,VWS V12.07,2013-11-11 10:29:00,
2013-11-11 04:39:00,26.1,21.4,30.17,North,355,1.0,7.0,82,0.00,,,0.00,VWS V12.07,2013-11-11 10:39:00,
2013-11-11 04:44:00,26.0,21.3,30.17,NE,44,3.0,7.0,82,0.00,,,0.00,VWS V12.07,2013-11-11 10:44:00,
2013-11-11 04:49:00,25.8,20.5,30.17,NE,36,5.0,12.0,80,0.00,,,0.00,VWS V12.07,2013-11-11 10:49:00,
2013-11-11 04:54:00,25.4,19.5,30.18,NNE,15,1.0,12.0,78,0.00,,,0.00,VWS V12.07,2013-11-11 10:54:00,
2013-11-11 04:59:00,25.2,18.7,30.18,NNE,32,3.0,12.0,76,0.00,,,0.00,VWS V12.07,2013-11-11 10:59:00,
2013-11-11 05:04:00,25.0,18.2,30.18,North,360,6.0,8.0,75,0.00,,,0.00,VWS V12.07,2013-11-11 11:04:00,
2013-11-11 05:09:00,24.6,17.2,30.19,NNW,342,5.0,15.0,73,0.00,,,0.00,VWS V12.07,2013-11-11 11:09:00,
2013-11-11 05:14:00,24.4,16.7,30.19,SSW,200,2.0,15.0,72,0.00,,,0.00,VWS V12.07,2013-11-11 11:14:00,
2013-11-11 05:19:00,24.4,17.0,30.19,WNW,288,7.0,15.0,73,0.00,,,0.00,VWS V12.07,2013-11-11 11:19:00,
2013-11-11 05:24:00,24.3,17.2,30.20,NE,46,1.0,15.0,74,0.00,,,0.00,VWS V12.07,2013-11-11 11:24:00,
2013-11-11 05:29:00,24.2,17.1,30.20,North,355,0.0,15.0,74,0.00,,,0.00,VWS V12.07,2013-11-11 11:29:00,
2013-11-11 05:34:00,24.0,16.9,30.20,ENE,74,3.0,7.0,74,0.00,,,0.00,VWS V12.07,2013-11-11 11:34:00,
2013-11-11 05:39:00,24.0,17.2,30.20,NNE,14,2.0,7.0,75,0.00,,,0.00,VWS V12.07,2013-11-11 11:39:00,
2013-11-11 05:44:00,24.0,17.2,30.21,ENE,61,1.0,7.0,75,0.00,,,0.00,VWS V12.07,2013-11-11 11:44:00,
2013-11-11 05:54:00,23.7,17.0,30.21,NE,51,4.0,11.0,75,0.00,,,0.00,VWS V12.07,2013-11-11 11:54:00,
2013-11-11 06:04:00,23.3,15.6,30.22,NE,44,3.0,11.0,72,0.00,,,0.00,VWS V12.07,2013-11-11 12:04:00,
2013-11-11 06:09:00,23.0,15.3,30.22,NE,53,8.0,11.0,72,0.00,,,0.00,VWS V12.07,2013-11-11 12:09:00,
2013-11-11 06:19:00,22.7,14.7,30.23,SE,126,2.0,12.0,71,0.00,,,0.00,VWS V12.07,2013-11-11 12:19:00,
2013-11-11 06:24:00,22.5,14.5,30.23,NE,38,3.0,12.0,71,0.00,,,0.00,VWS V12.07,2013-11-11 12:24:00,
2013-11-11 06:29:00,22.4,14.8,30.23,NE,51,0.0,12.0,72,0.00,,,0.00,VWS V12.07,2013-11-11 12:29:00,
2013-11-11 06:34:00,22.4,14.4,30.24,NNE,13,2.0,9.0,71,0.00,,,0.00,VWS V12.07,2013-11-11 12:34:00,
2013-11-11 06:39:00,22.2,13.6,30.24,NE,46,3.0,9.0,69,0.00,,,0.00,VWS V12.07,2013-11-11 12:39:00,
2013-11-11 06:44:00,22.1,13.5,30.24,NE,52,6.0,13.0,69,0.00,,,0.00,VWS V12.07,2013-11-11 12:44:00,
2013-11-11 06:49:00,22.1,13.8,30.25,East,86,7.0,13.0,70,0.00,,,0.00,VWS V12.07,2013-11-11 12:49:00,
2013-11-11 06:54:00,22.1,13.8,30.25,North,360,4.0,13.0,70,0.00,,,0.00,VWS V12.07,2013-11-11 12:54:00,
2013-11-11 06:59:00,22.1,15.7,30.26,NNE,28,8.0,13.0,76,0.00,,,0.00,VWS V12.07,2013-11-11 12:59:00,
2013-11-11 07:09:00,22.0,13.7,30.26,North,355,3.0,11.0,70,0.00,,,0.00,VWS V12.07,2013-11-11 13:09:00,
2013-11-11 07:14:00,21.9,14.0,30.26,ENE,65,3.0,11.0,71,0.00,,,0.00,VWS V12.07,2013-11-11 13:14:00,
2013-11-11 07:19:00,21.9,13.6,30.27,North,355,3.0,11.0,70,0.00,,,0.00,VWS V12.07,2013-11-11 13:19:00,
2013-11-11 07:29:00,21.7,14.1,30.27,NNW,342,0.0,14.0,72,0.00,,,0.00,VWS V12.07,2013-11-11 13:29:00,
2013-11-11 07:34:00,21.8,14.5,30.28,WNW,287,0.0,4.0,73,0.00,,,0.00,VWS V12.07,2013-11-11 13:34:00,
2013-11-11 07:39:00,21.8,14.5,30.28,ENE,78,2.0,6.0,73,0.00,,,0.00,VWS V12.07,2013-11-11 13:39:00,
2013-11-11 07:49:00,21.8,14.8,30.28,NE,54,2.0,7.0,74,0.00,,,0.00,VWS V12.07,2013-11-11 13:49:00,
2013-11-11 07:54:00,22.0,14.7,30.29,ENE,74,0.0,7.0,73,0.00,,,0.00,VWS V12.07,2013-11-11 13:54:00,
2013-11-11 07:59:00,22.0,14.4,30.29,NNE,16,0.0,10.0,72,0.00,,,0.00,VWS V12.07,2013-11-11 13:59:00,
2013-11-11 08:09:00,22.0,14.4,30.29,North,9,5.0,7.0,72,0.00,,,0.00,VWS V12.07,2013-11-11 14:09:00,
2013-11-11 08:14:00,21.9,14.3,30.29,NNE,29,8.0,12.0,72,0.00,,,0.00,VWS V12.07,2013-11-11 14:14:00,
2013-11-11 08:24:00,21.8,13.5,30.30,NNE,24,4.0,12.0,70,0.00,,,0.00,VWS V12.07,2013-11-11 14:24:00,
2013-11-11 08:34:00,21.9,13.0,30.30,SW,226,0.0,5.0,68,0.00,,,0.00,VWS V12.07,2013-11-11 14:34:00,
2013-11-11 08:39:00,21.9,12.3,30.30,NW,321,0.0,10.0,66,0.00,,,0.00,VWS V12.07,2013-11-11 14:39:00,
2013-11-11 08:44:00,22.0,12.7,30.30,NNE,33,11.0,11.0,67,0.00,,,0.00,VWS V12.07,2013-11-11 14:44:00,
2013-11-11 08:49:00,21.9,12.3,30.30,ENE,78,1.0,11.0,66,0.00,,,0.00,VWS V12.07,2013-11-11 14:49:00,
2013-11-11 08:54:00,22.0,13.1,30.31,NE,52,4.0,11.0,68,0.00,,,0.00,VWS V12.07,2013-11-11 14:54:00,
2013-11-11 08:59:00,22.1,13.5,30.31,NW,306,6.0,11.0,69,0.00,,,0.00,VWS V12.07,2013-11-11 14:59:00,
2013-11-11 09:04:00,22.0,13.7,30.31,ENE,59,2.0,7.0,70,0.00,,,0.00,VWS V12.07,2013-11-11 15:04:00,
2013-11-11 09:09:00,21.8,12.9,30.31,NNE,30,1.0,9.0,68,0.00,,,0.00,VWS V12.07,2013-11-11 15:09:00,
2013-11-11 09:14:00,21.7,13.1,30.32,NNE,28,4.0,9.0,69,0.00,,,0.00,VWS V12.07,2013-11-11 15:14:00,
2013-11-11 09:19:00,21.7,13.1,30.32,NNE,32,6.0,10.0,69,0.00,,,0.00,VWS V12.07,2013-11-11 15:19:00,
2013-11-11 09:24:00,21.7,13.1,30.32,NNE,25,4.0,10.0,69,0.00,,,0.00,VWS V12.07,2013-11-11 15:24:00,
2013-11-11 09:29:00,21.8,12.9,30.32,NNE,18,1.0,10.0,68,0.00,,,0.00,VWS V12.07,2013-11-11 15:29:00,
2013-11-11 09:34:00,22.0,13.1,30.32,WNW,299,10.0,10.0,68,0.00,,,0.00,VWS V12.07,2013-11-11 15:34:00,
2013-11-11 09:39:00,22.2,13.6,30.32,NNE,33,4.0,10.0,69,0.00,,,0.00,VWS V12.07,2013-11-11 15:39:00,
2013-11-11 09:49:00,22.5,13.6,30.32,NE,53,5.0,10.0,68,0.00,,,0.00,VWS V12.07,2013-11-11 15:49:00,
2013-11-11 09:54:00,22.5,13.9,30.33,West,276,1.0,10.0,69,0.00,,,0.00,VWS V12.07,2013-11-11 15:54:00,
2013-11-11 10:04:00,22.2,14.2,30.33,NE,46,4.0,5.0,71,0.00,,,0.00,VWS V12.07,2013-11-11 16:04:00,
2013-11-11 10:09:00,22.2,14.9,30.33,West,273,4.0,9.0,73,0.00,,,0.00,VWS V12.07,2013-11-11 16:09:00,
2013-11-11 10:19:00,22.3,14.7,30.34,NE,46,5.0,9.0,72,0.00,,,0.00,VWS V12.07,2013-11-11 16:19:00,
2013-11-11 10:24:00,22.3,14.7,30.33,NE,50,0.0,10.0,72,0.00,,,0.00,VWS V12.07,2013-11-11 16:24:00,
2013-11-11 10:29:00,22.3,15.6,30.34,NE,46,2.0,10.0,75,0.00,,,0.00,VWS V12.07,2013-11-11 16:29:00,
2013-11-11 10:34:00,22.2,15.5,30.34,SE,124,0.0,1.0,75,0.00,,,0.00,VWS V12.07,2013-11-11 16:34:00,
2013-11-11 10:44:00,22.7,14.4,30.34,NE,55,1.0,13.0,70,0.00,,,0.00,VWS V12.07,2013-11-11 16:44:00,
2013-11-11 10:49:00,22.9,14.3,30.34,North,355,2.0,13.0,69,0.00,,,0.00,VWS V12.07,2013-11-11 16:49:00,
2013-11-11 10:54:00,23.1,14.1,30.35,NNW,341,5.0,13.0,68,0.00,,,0.00,VWS V12.07,2013-11-11 16:54:00,
2013-11-11 11:04:00,23.4,14.1,30.35,North,5,3.0,7.0,67,0.00,,,0.00,VWS V12.07,2013-11-11 17:04:00,
2013-11-11 11:09:00,23.5,13.8,30.35,ENE,59,2.0,11.0,66,0.00,,,0.00,VWS V12.07,2013-11-11 17:09:00,
2013-11-11 11:19:00,23.3,12.9,30.35,WNW,299,4.0,11.0,64,0.00,,,0.00,VWS V12.07,2013-11-11 17:19:00,
2013-11-11 11:29:00,23.6,13.6,30.35,WSW,244,4.0,11.0,65,0.00,,,0.00,VWS V12.07,2013-11-11 17:29:00,
2013-11-11 11:39:00,23.8,13.8,30.35,North,10,2.0,8.0,65,0.00,,,0.00,VWS V12.07,2013-11-11 17:39:00,
2013-11-11 11:44:00,23.9,14.2,30.35,NNE,33,2.0,9.0,66,0.00,,,0.00,VWS V12.07,2013-11-11 17:44:00,
2013-11-11 11:49:00,23.8,13.4,30.35,NE,55,7.0,9.0,64,0.00,,,0.00,VWS V12.07,2013-11-11 17:49:00,
2013-11-11 11:54:00,23.4,12.7,30.35,NE,44,4.0,13.0,63,0.00,,,0.00,VWS V12.07,2013-11-11 17:54:00,
2013-11-11 11:59:00,23.4,12.7,30.35,WNW,300,0.0,13.0,63,0.00,,,0.00,VWS V12.07,2013-11-11 17:59:00,
2013-11-11 12:09:00,23.4,12.3,30.36,NE,41,0.0,10.0,62,0.00,,,0.00,VWS V12.07,2013-11-11 18:09:00,
2013-11-11 12:14:00,23.6,12.9,30.35,NE,36,3.0,10.0,63,0.00,,,0.00,VWS V12.07,2013-11-11 18:14:00,
2013-11-11 12:19:00,23.7,13.3,30.36,NE,47,3.0,10.0,64,0.00,,,0.00,VWS V12.07,2013-11-11 18:19:00,
2013-11-11 12:24:00,23.7,12.6,30.36,WSW,256,7.0,13.0,62,0.00,,,0.00,VWS V12.07,2013-11-11 18:24:00,
2013-11-11 12:34:00,24.0,14.3,30.36,SE,140,1.0,9.0,66,0.00,,,0.00,VWS V12.07,2013-11-11 18:34:00,
2013-11-11 12:44:00,23.9,14.9,30.37,NNW,340,4.0,12.0,68,0.00,,,0.00,VWS V12.07,2013-11-11 18:44:00,
2013-11-11 12:49:00,23.6,13.6,30.37,NE,40,8.0,12.0,65,0.00,,,0.00,VWS V12.07,2013-11-11 18:49:00,
2013-11-11 12:54:00,23.6,13.2,30.38,ENE,60,3.0,12.0,64,0.00,,,0.00,VWS V12.07,2013-11-11 18:54:00,
2013-11-11 12:59:00,23.7,13.3,30.38,West,266,1.0,12.0,64,0.00,,,0.00,VWS V12.07,2013-11-11 18:59:00,
2013-11-11 13:04:00,23.9,13.9,30.38,WNW,283,7.0,7.0,65,0.00,,,0.00,VWS V12.07,2013-11-11 19:04:00,
2013-11-11 13:09:00,24.0,14.6,30.38,NNW,333,0.0,11.0,67,0.00,,,0.00,VWS V12.07,2013-11-11 19:09:00,
2013-11-11 13:19:00,24.1,13.7,30.38,NW,325,3.0,11.0,64,0.00,,,0.00,VWS V12.07,2013-11-11 19:19:00,
2013-11-11 13:24:00,24.3,13.9,30.38,NNW,345,0.0,11.0,64,0.00,,,0.00,VWS V12.07,2013-11-11 19:24:00,
2013-11-11 13:29:00,24.6,14.5,30.38,North,360,6.0,11.0,65,0.00,,,0.00,VWS V12.07,2013-11-11 19:29:00,
2013-11-11 13:34:00,24.7,14.6,30.38,NNE,19,1.0,4.0,65,0.00,,,0.00,VWS V12.07,2013-11-11 19:34:00,
2013-11-11 13:39:00,24.8,14.4,30.38,NE,41,6.0,7.0,64,0.00,,,0.00,VWS V12.07,2013-11-11 19:39:00,
2013-11-11 13:44:00,24.4,13.6,30.38,WNW,288,6.0,12.0,63,0.00,,,0.00,VWS V12.07,2013-11-11 19:44:00,
2013-11-11 13:54:00,24.1,14.4,30.40,West,275,7.0,13.0,66,0.00,,,0.00,VWS V12.07,2013-11-11 19:54:00,
2013-11-11 13:59:00,24.0,14.0,30.39,NW,317,2.0,13.0,65,0.00,,,0.00,VWS V12.07,2013-11-11 19:59:00,
2013-11-11 14:04:00,23.9,13.9,30.39,NW,307,3.0,4.0,65,0.00,,,0.00,VWS V12.07,2013-11-11 20:04:00,
2013-11-11 14:09:00,23.9,14.6,30.40,NNE,16,3.0,8.0,67,0.00,,,0.00,VWS V12.07,2013-11-11 20:09:00,
2013-11-11 14:14:00,23.7,15.7,30.40,North,360,1.0,8.0,71,0.00,,,0.00,VWS V12.07,2013-11-11 20:14:00,
2013-11-11 14:19:00,23.4,15.4,30.40,NE,48,3.0,8.0,71,0.00,,,0.00,VWS V12.07,2013-11-11 20:19:00,
2013-11-11 14:24:00,23.4,15.4,30.41,East,87,1.0,10.0,71,0.00,,,0.00,VWS V12.07,2013-11-11 20:24:00,
2013-11-11 14:29:00,23.4,14.8,30.41,WSW,246,2.0,12.0,69,0.00,,,0.00,VWS V12.07,2013-11-11 20:29:00,
2013-11-11 14:34:00,23.5,14.5,30.41,ENE,76,1.0,4.0,68,0.00,,,0.00,VWS V12.07,2013-11-11 20:34:00,
2013-11-11 14:39:00,23.4,14.8,30.41,NW,319,4.0,11.0,69,0.00,,,0.00,VWS V12.07,2013-11-11 20:39:00,
2013-11-11 14:44:00,23.4,14.4,30.41,NE,45,3.0,11.0,68,0.00,,,0.00,VWS V12.07,2013-11-11 20:44:00,
2013-11-11 14:49:00,23.5,14.8,30.41,NNW,328,3.0,11.0,69,0.00,,,0.00,VWS V12.07,2013-11-11 20:49:00,
2013-11-11 14:54:00,23.6,14.9,30.42,NW,312,0.0,11.0,69,0.00,,,0.00,VWS V12.07,2013-11-11 20:54:00,
2013-11-11 14:59:00,23.5,14.8,30.42,NE,49,0.0,11.0,69,0.00,,,0.00,VWS V12.07,2013-11-11 20:59:00,
2013-11-11 15:04:00,23.5,14.8,30.42,NE,41,0.0,3.0,69,0.00,,,0.00,VWS V12.07,2013-11-11 21:04:00,
2013-11-11 15:09:00,23.6,14.9,30.42,SW,231,2.0,8.0,69,0.00,,,0.00,VWS V12.07,2013-11-11 21:09:00,
2013-11-11 15:14:00,23.5,15.2,30.42,NNW,339,0.0,8.0,70,0.00,,,0.00,VWS V12.07,2013-11-11 21:14:00,
2013-11-11 15:19:00,23.5,15.2,30.43,South,183,0.0,10.0,70,0.00,,,0.00,VWS V12.07,2013-11-11 21:19:00,
2013-11-11 15:24:00,23.5,15.2,30.43,NE,56,3.0,10.0,70,0.00,,,0.00,VWS V12.07,2013-11-11 21:24:00,
2013-11-11 15:29:00,23.5,15.5,30.44,NNE,24,5.0,11.0,71,0.00,,,0.00,VWS V12.07,2013-11-11 21:29:00,
2013-11-11 15:34:00,23.4,16.0,30.44,West,277,0.0,5.0,73,0.00,,,0.00,VWS V12.07,2013-11-11 21:34:00,
2013-11-11 15:39:00,23.0,16.9,30.44,NE,49,0.0,8.0,77,0.00,,,0.00,VWS V12.07,2013-11-11 21:39:00,
2013-11-11 15:44:00,22.7,17.2,30.44,ESE,107,2.0,8.0,79,0.00,,,0.00,VWS V12.07,2013-11-11 21:44:00,
2013-11-11 15:49:00,22.6,16.8,30.44,NNE,31,0.0,8.0,78,0.00,,,0.00,VWS V12.07,2013-11-11 21:49:00,
2013-11-11 15:54:00,22.7,16.3,30.44,NE,43,1.0,10.0,76,0.00,,,0.00,VWS V12.07,2013-11-11 21:54:00,
2013-11-11 15:59:00,22.8,16.4,30.44,NNE,19,2.0,10.0,76,0.00,,,0.00,VWS V12.07,2013-11-11 21:59:00,
2013-11-11 16:04:00,22.9,15.9,30.45,ENE,71,0.0,4.0,74,0.00,,,0.00,VWS V12.07,2013-11-11 22:04:00,
2013-11-11 16:09:00,23.0,16.0,30.45,North,350,1.0,9.0,74,0.00,,,0.00,VWS V12.07,2013-11-11 22:09:00,
2013-11-11 16:14:00,23.0,16.0,30.45,NE,45,0.0,9.0,74,0.00,,,0.00,VWS V12.07,2013-11-11 22:14:00,
2013-11-11 16:19:00,23.1,16.4,30.46,SE,130,0.0,9.0,75,0.00,,,0.00,VWS V12.07,2013-11-11 22:19:00,
2013-11-11 16:24:00,23.1,16.1,30.46,ENE,72,4.0,9.0,74,0.00,,,0.00,VWS V12.07,2013-11-11 22:24:00,
2013-11-11 16:29:00,23.1,16.1,30.46,NNE,29,3.0,9.0,74,0.00,,,0.00,VWS V12.07,2013-11-11 22:29:00,
2013-11-11 16:34:00,23.2,16.5,30.46,NNW,331,0.0,5.0,75,0.00,,,0.00,VWS V12.07,2013-11-11 22:34:00,
2013-11-11 16:39:00,23.2,16.5,30.47,NNE,32,1.0,5.0,75,0.00,,,0.00,VWS V12.07,2013-11-11 22:39:00,
2013-11-11 16:44:00,23.1,16.4,30.47,South,184,1.0,9.0,75,0.00,,,0.00,VWS V12.07,2013-11-11 22:44:00,
2013-11-11 16:54:00,23.0,16.9,30.48,SW,234,3.0,9.0,77,0.00,,,0.00,VWS V12.07,2013-11-11 22:54:00,
2013-11-11 16:59:00,22.9,16.5,30.47,WNW,293,3.0,9.0,76,0.00,,,0.00,VWS V12.07,2013-11-11 22:59:00,
2013-11-11 17:04:00,22.9,16.5,30.48,SSW,198,0.0,2.0,76,0.00,,,0.00,VWS V12.07,2013-11-11 23:04:00,
2013-11-11 17:09:00,22.8,16.7,30.48,SE,128,1.0,5.0,77,0.00,,,0.00,VWS V12.07,2013-11-11 23:09:00,
2013-11-11 17:14:00,22.7,16.6,30.48,NW,323,7.0,8.0,77,0.00,,,0.00,VWS V12.07,2013-11-11 23:14:00,
2013-11-11 17:19:00,22.7,16.3,30.48,West,268,0.0,8.0,76,0.00,,,0.00,VWS V12.07,2013-11-11 23:19:00,
2013-11-11 17:24:00,22.7,16.3,30.48,WSW,238,0.0,8.0,76,0.00,,,0.00,VWS V12.07,2013-11-11 23:24:00,
2013-11-11 17:29:00,22.6,16.5,30.49,NE,44,3.0,8.0,77,0.00,,,0.00,VWS V12.07,2013-11-11 23:29:00,
2013-11-11 17:34:00,22.6,16.5,30.49,ENE,67,0.0,3.0,77,0.00,,,0.00,VWS V12.07,2013-11-11 23:34:00,
2013-11-11 17:44:00,22.6,16.8,30.50,WSW,253,2.0,8.0,78,0.00,,,0.00,VWS V12.07,2013-11-11 23:44:00,
2013-11-11 17:49:00,22.5,16.7,30.50,NNE,28,3.0,8.0,78,0.00,,,0.00,VWS V12.07,2013-11-11 23:49:00,
2013-11-11 17:54:00,22.5,16.7,30.50,WNW,298,1.0,8.0,78,0.00,,,0.00,VWS V12.07,2013-11-11 23:54:00,
2013-11-11 17:59:00,22.5,17.0,30.51,NNE,28,0.0,8.0,79,0.00,,,0.00,VWS V12.07,2013-11-11 23:59:00,
2013-11-11 18:04:00,22.5,16.7,30.51,NE,45,0.0,3.0,78,0.00,,,0.00,VWS V12.07,2013-11-12 00:04:00,
2013-11-11 18:09:00,22.5,17.0,30.51,NE,42,1.0,4.0,79,0.00,,,0.00,VWS V12.07,2013-11-12 00:09:00,
2013-11-11 18:14:00,22.5,17.0,30.51,NE,40,0.0,4.0,79,0.00,,,0.00,VWS V12.07,2013-11-12 00:14:00,
2013-11-11 18:19:00,22.5,17.0,30.52,SW,234,4.0,8.0,79,0.00,,,0.00,VWS V12.07,2013-11-12 00:19:00,
2013-11-11 18:24:00,22.5,16.7,30.52,NE,55,4.0,8.0,78,0.00,,,0.00,VWS V12.07,2013-11-12 00:24:00,
2013-11-11 18:29:00,22.5,16.7,30.52,North,360,0.0,8.0,78,0.00,,,0.00,VWS V12.07,2013-11-12 00:29:00,
2013-11-11 18:34:00,22.5,16.7,30.52,NNE,19,1.0,4.0,78,0.00,,,0.00,VWS V12.07,2013-11-12 00:34:00,
2013-11-11 18:39:00,22.5,16.7,30.53,NE,55,2.0,4.0,78,0.00,,,0.00,VWS V12.07,2013-11-12 00:39:00,
2013-11-11 18:44:00,22.5,16.7,30.53,NNE,26,0.0,9.0,78,0.00,,,0.00,VWS V12.07,2013-11-12 00:44:00,
2013-11-11 18:49:00,22.4,16.6,30.53,North,355,0.0,9.0,78,0.00,,,0.00,VWS V12.07,2013-11-12 00:49:00,
2013-11-11 18:54:00,22.3,16.5,30.53,NE,36,0.0,9.0,78,0.00,,,0.00,VWS V12.07,2013-11-12 00:54:00,
2013-11-11 18:59:00,22.3,16.5,30.54,South,178,0.0,9.0,78,0.00,,,0.00,VWS V12.07,2013-11-12 00:59:00,
2013-11-11 19:04:00,22.2,16.4,30.54,NNW,330,1.0,7.0,78,0.00,,,0.00,VWS V12.07,2013-11-12 01:04:00,
2013-11-11 19:09:00,22.3,16.5,30.55,NE,36,2.0,11.0,78,0.00,,,0.00,VWS V12.07,2013-11-12 01:09:00,
2013-11-11 19:19:00,22.4,16.3,30.55,NNW,333,0.0,11.0,77,0.00,,,0.00,VWS V12.07,2013-11-12 01:19:00,
2013-11-11 19:24:00,22.4,16.3,30.54,WSW,244,0.0,11.0,77,0.00,,,0.00,VWS V12.07,2013-11-12 01:24:00,
2013-11-11 19:29:00,22.4,16.0,30.55,ESE,118,3.0,11.0,76,0.00,,,0.00,VWS V12.07,2013-11-12 01:29:00,
2013-11-11 19:34:00,22.4,16.3,30.55,NE,47,3.0,5.0,77,0.00,,,0.00,VWS V12.07,2013-11-12 01:34:00,
2013-11-11 19:44:00,22.4,16.0,30.56,NE,48,1.0,7.0,76,0.00,,,0.00,VWS V12.07,2013-11-12 01:44:00,
2013-11-11 19:49:00,22.4,16.3,30.56,NNE,28,6.0,9.0,77,0.00,,,0.00,VWS V12.07,2013-11-12 01:49:00,
2013-11-11 19:54:00,22.3,15.6,30.56,NE,53,1.0,12.0,75,0.00,,,0.00,VWS V12.07,2013-11-12 01:54:00,
2013-11-11 19:59:00,22.3,15.6,30.56,East,82,0.0,12.0,75,0.00,,,0.00,VWS V12.07,2013-11-12 01:59:00,
2013-11-11 20:04:00,22.4,15.7,30.56,ENE,69,2.0,4.0,75,0.00,,,0.00,VWS V12.07,2013-11-12 02:04:00,
2013-11-11 20:09:00,22.4,15.7,30.56,SW,232,4.0,6.0,75,0.00,,,0.00,VWS V12.07,2013-11-12 02:09:00,
2013-11-11 20:14:00,22.3,15.3,30.56,NE,41,10.0,10.0,74,0.00,,,0.00,VWS V12.07,2013-11-12 02:14:00,
2013-11-11 20:24:00,22.3,15.0,30.57,ENE,57,2.0,10.0,73,0.00,,,0.00,VWS V12.07,2013-11-12 02:24:00,
2013-11-11 20:29:00,22.3,15.0,30.57,West,264,0.0,10.0,73,0.00,,,0.00,VWS V12.07,2013-11-12 02:29:00,
2013-11-11 20:34:00,22.3,14.7,30.58,WSW,256,3.0,6.0,72,0.00,,,0.00,VWS V12.07,2013-11-12 02:34:00,
2013-11-11 20:44:00,22.2,15.2,30.58,SSE,165,0.0,9.0,74,0.00,,,0.00,VWS V12.07,2013-11-12 02:44:00,
2013-11-11 20:49:00,22.2,15.5,30.58,ENE,57,2.0,9.0,75,0.00,,,0.00,VWS V12.07,2013-11-12 02:49:00,
2013-11-11 20:54:00,22.1,15.4,30.58,NE,46,1.0,9.0,75,0.00,,,0.00,VWS V12.07,2013-11-12 02:54:00,
2013-11-11 20:59:00,22.1,15.7,30.59,ENE,70,0.0,9.0,76,0.00,,,0.00,VWS V12.07,2013-11-12 02:59:00,
2013-11-11 21:04:00,22.0,15.9,30.59,NNE,32,4.0,7.0,77,0.00,,,0.00,VWS V12.07,2013-11-12 03:04:00,
2013-11-11 21:09:00,21.8,15.7,30.59,WNW,295,2.0,10.0,77,0.00,,,0.00,VWS V12.07,2013-11-12 03:09:00,
2013-11-11 21:19:00,21.7,15.9,30.60,NNE,19,5.0,10.0,78,0.00,,,0.00,VWS V12.07,2013-11-12 03:19:00,
2013-11-11 21:24:00,21.6,15.8,30.60,West,259,5.0,10.0,78,0.00,,,0.00,VWS V12.07,2013-11-12 03:24:00,
2013-11-11 21:34:00,21.5,15.4,30.61,WSW,238,7.0,9.0,77,0.00,,,0.00,VWS V12.07,2013-11-12 03:34:00,
2013-11-11 21:39:00,21.5,15.4,30.61,NE,41,0.0,9.0,77,0.00,,,0.00,VWS V12.07,2013-11-12 03:39:00,
2013-11-11 21:44:00,21.3,15.5,30.61,NE,37,0.0,9.0,78,0.00,,,0.00,VWS V12.07,2013-11-12 03:44:00,
2013-11-11 21:54:00,21.3,15.8,30.61,NNE,26,4.0,9.0,79,0.00,,,0.00,VWS V12.07,2013-11-12 03:54:00,
2013-11-11 21:59:00,21.3,15.8,30.62,NNE,25,1.0,9.0,79,0.00,,,0.00,VWS V12.07,2013-11-12 03:59:00,
2013-11-11 22:09:00,21.3,15.5,30.62,North,360,4.0,5.0,78,0.00,,,0.00,VWS V12.07,2013-11-12 04:09:00,
2013-11-11 22:14:00,21.4,15.6,30.62,East,88,5.0,5.0,78,0.00,,,0.00,VWS V12.07,2013-11-12 04:14:00,
2013-11-11 22:19:00,21.5,15.7,30.62,NNE,21,0.0,5.0,78,0.00,,,0.00,VWS V12.07,2013-11-12 04:19:00,
2013-11-11 22:24:00,21.4,15.6,30.62,SSE,160,1.0,6.0,78,0.00,,,0.00,VWS V12.07,2013-11-12 04:24:00,
2013-11-11 22:29:00,21.3,15.5,30.63,NE,51,0.0,6.0,78,0.00,,,0.00,VWS V12.07,2013-11-12 04:29:00,
2013-11-11 22:34:00,21.3,15.5,30.63,ENE,76,0.0,1.0,78,0.00,,,0.00,VWS V12.07,2013-11-12 04:34:00,
2013-11-11 22:39:00,21.3,15.8,30.63,NE,47,0.0,4.0,79,0.00,,,0.00,VWS V12.07,2013-11-12 04:39:00,
2013-11-11 22:44:00,21.3,15.5,30.63,NNE,30,1.0,5.0,78,0.00,,,0.00,VWS V12.07,2013-11-12 04:44:00,
2013-11-11 22:49:00,21.3,15.5,30.63,NE,40,0.0,5.0,78,0.00,,,0.00,VWS V12.07,2013-11-12 04:49:00,
2013-11-11 22:54:00,21.2,15.4,30.63,NE,53,2.0,5.0,78,0.00,,,0.00,VWS V12.07,2013-11-12 04:54:00,
2013-11-11 22:59:00,21.1,14.7,30.63,SE,138,0.0,7.0,76,0.00,,,0.00,VWS V12.07,2013-11-12 04:59:00,
2013-11-11 23:04:00,21.1,14.7,30.63,ENE,63,1.0,3.0,76,0.00,,,0.00,VWS V12.07,2013-11-12 05:04:00,
2013-11-11 23:09:00,21.0,14.3,30.63,ENE,71,0.0,3.0,75,0.00,,,0.00,VWS V12.07,2013-11-12 05:09:00,
2013-11-11 23:14:00,20.9,13.9,30.63,NE,50,0.0,6.0,74,0.00,,,0.00,VWS V12.07,2013-11-12 05:14:00,
2013-11-11 23:19:00,20.9,14.2,30.64,NNW,342,0.0,6.0,75,0.00,,,0.00,VWS V12.07,2013-11-12 05:19:00,
2013-11-11 23:24:00,20.8,14.4,30.64,NE,37,0.0,9.0,76,0.00,,,0.00,VWS V12.07,2013-11-12 05:24:00,
2013-11-11 23:29:00,20.8,14.4,30.64,North,350,0.0,12.0,76,0.00,,,0.00,VWS V12.07,2013-11-12 05:29:00,
2013-11-11 23:34:00,20.8,14.7,30.64,WSW,258,0.0,4.0,77,0.00,,,0.00,VWS V12.07,2013-11-12 05:34:00,
2013-11-11 23:39:00,20.8,15.3,30.64,WSW,258,0.0,4.0,79,0.00,,,0.00,VWS V12.07,2013-11-12 05:39:00,
2013-11-11 23:44:00,20.7,15.5,30.64,WNW,282,0.0,4.0,80,0.00,,,0.00,VWS V12.07,2013-11-12 05:44:00,
2013-11-11 23:49:00,20.7,15.8,30.64,WSW,252,0.0,5.0,81,0.00,,,0.00,VWS V12.07,2013-11-12 05:49:00,
2013-11-11 23:54:00,20.6,15.7,30.64,WSW,257,1.0,5.0,81,0.00,,,0.00,VWS V12.07,2013-11-12 05:54:00,